createdAt,value
2022-08-21T00:06:55.572Z,98121.09
2022-08-21T00:17:03.778Z,98126.73
2022-08-21T00:27:11.161Z,98133.19
2022-08-21T00:37:18.529Z,98136.21
2022-08-21T00:47:24.852Z,98131.41
2022-08-21T00:57:38.600Z,98124.60
2022-08-21T01:07:47.718Z,98114.67
2022-08-21T01:17:55.029Z,98111.54
2022-08-21T01:28:09.114Z,98088.57
2022-08-21T01:38:16.210Z,98075.69
2022-08-21T01:48:23.389Z,98061.34
2022-08-21T01:58:30.523Z,98051.98
2022-08-21T02:08:38.300Z,98052.34
2022-08-21T02:18:46.049Z,98042.59
2022-08-21T02:28:53.527Z,98043.86
2022-08-21T02:39:00.740Z,98041.40
2022-08-21T02:49:08.131Z,98039.96
2022-08-21T02:59:15.360Z,98051.85
2022-08-21T03:09:22.669Z,98062.69
2022-08-21T03:19:30.056Z,98062.73
2022-08-21T03:29:37.116Z,98040.25
2022-08-21T03:39:45.890Z,98032.10
2022-08-21T03:49:52.807Z,98026.36
2022-08-21T04:10:07.738Z,98027.84
2022-08-21T04:20:13.125Z,98033.33
2022-08-21T04:30:28.312Z,98040.41
2022-08-21T04:40:36.173Z,98050.15
2022-08-21T04:50:48.849Z,98055.34
2022-08-21T05:00:54.068Z,98055.71
2022-08-21T05:11:01.440Z,98059.14
2022-08-21T05:21:08.960Z,98059.52
2022-08-21T05:31:15.264Z,98067.09
2022-08-21T05:41:22.469Z,98072.23
2022-08-21T05:51:29.894Z,98082.23
2022-08-21T06:01:37.571Z,98088.08
2022-08-21T06:11:44.756Z,98085.35
2022-08-21T06:21:51.875Z,98090.67
2022-08-21T06:31:59.150Z,98085.27
2022-08-21T06:42:10.126Z,98083.76
2022-08-21T06:52:18.367Z,98087.28
2022-08-21T07:02:25.479Z,98100.85
2022-08-21T07:12:32.914Z,98118.30
2022-08-21T07:22:40.608Z,98125.79
2022-08-21T07:32:50.364Z,98128.56
2022-08-21T07:42:57.824Z,98132.71
2022-08-21T07:53:05.068Z,98131.88
2022-08-21T08:03:12.847Z,98132.87
2022-08-21T08:13:19.244Z,98132.19
2022-08-21T08:23:26.574Z,98128.45
2022-08-21T08:33:32.528Z,98135.11
2022-08-21T08:43:41.896Z,98128.32
2022-08-21T08:53:49.773Z,98116.98
2022-08-21T09:03:57.978Z,98119.25
2022-08-21T09:14:02.958Z,98112.84
2022-08-21T09:24:20.722Z,98108.19
2022-08-21T09:34:30.145Z,98102.36
2022-08-21T09:44:39.740Z,98098.67
2022-08-21T09:54:51.213Z,98085.16
2022-08-21T10:05:02.065Z,98088.69
2022-08-21T10:15:08.905Z,98097.15
2022-08-21T10:25:16.523Z,98102.05
2022-08-21T10:35:21.362Z,98100.89
2022-08-21T10:45:30.401Z,98104.23
2022-08-21T10:55:43.921Z,98109.23
2022-08-21T11:05:52.648Z,98119.36
2022-08-21T11:15:56.060Z,98122.13
2022-08-21T11:26:17.414Z,98120.88
2022-08-21T11:36:22.577Z,98116.20
2022-08-21T11:46:30.386Z,98126.48
2022-08-21T12:06:46.575Z,98118.18
2022-08-21T12:16:53.852Z,98128.48
2022-08-21T12:27:15.410Z,98131.54
2022-08-21T12:37:23.987Z,98128.41
2022-08-21T12:47:29.750Z,98132.66
2022-08-21T12:57:42.923Z,98137.98
2022-08-21T13:07:52.489Z,98138.35
2022-08-21T13:17:59.199Z,98136.46
2022-08-21T13:28:10.433Z,98139.34
2022-08-21T13:38:18.481Z,98147.73
2022-08-21T13:48:28.726Z,98147.61
2022-08-21T13:58:44.142Z,98149.77
2022-08-21T14:08:50.761Z,98159.84
2022-08-21T14:19:09.409Z,98164.43
2022-08-21T14:29:18.841Z,98163.18
2022-08-21T14:39:25.890Z,98168.20
2022-08-21T14:49:33.709Z,98166.98
2022-08-21T14:59:41.725Z,98176.35
2022-08-21T15:09:48.224Z,98183.41
2022-08-21T15:19:55.373Z,98199.52
2022-08-21T15:30:03.560Z,98196.55
2022-08-21T15:40:14.350Z,98201.50
2022-08-21T15:50:22.944Z,98211.34
2022-08-21T16:00:30.067Z,98216.21
2022-08-21T16:10:39.042Z,98212.27
2022-08-21T16:20:45.131Z,98218.02
2022-08-21T16:30:53.813Z,98211.59
2022-08-21T16:40:59.451Z,98198.45
2022-08-21T16:51:07.374Z,98194.85
2022-08-21T17:01:17.797Z,98188.39
2022-08-21T17:11:37.719Z,98179.56
2022-08-21T17:21:45.994Z,98186.05
2022-08-21T17:31:50.903Z,98197.73
2022-08-21T17:42:03.110Z,98206.67
2022-08-21T17:52:10.768Z,98214.89
2022-08-21T18:02:20.422Z,98217.35
2022-08-21T18:12:26.772Z,98223.58
2022-08-21T18:22:32.997Z,98219.73
2022-08-21T18:32:40.613Z,98220.70
2022-08-21T18:42:55.520Z,98226.67
2022-08-21T18:53:07.939Z,98220.19
2022-08-21T19:03:26.604Z,98209.63
2022-08-21T19:13:33.615Z,98205.59
2022-08-21T19:23:42.467Z,98202.38
2022-08-21T19:34:01.610Z,98196.14
2022-08-21T19:44:12.609Z,98196.67
2022-08-21T19:54:28.226Z,98195.81
2022-08-21T20:04:37.041Z,98200.00
2022-08-21T20:14:42.703Z,98194.94
2022-08-21T20:24:50.609Z,98189.48
2022-08-21T20:34:59.048Z,98193.52
2022-08-21T20:45:08.611Z,98191.50
2022-08-21T20:55:28.983Z,98198.34
2022-08-21T21:05:38.168Z,98194.20
2022-08-21T21:15:48.888Z,98189.45
2022-08-21T21:26:05.295Z,98185.79
2022-08-21T21:36:13.127Z,98187.94
2022-08-21T21:46:28.027Z,98194.92
2022-08-21T21:56:33.720Z,98192.61
2022-08-21T22:06:51.395Z,98196.52
2022-08-21T22:16:59.906Z,98202.35
2022-08-21T22:27:11.629Z,98197.48
2022-08-21T22:37:18.065Z,98195.47
2022-08-21T22:47:33.712Z,98192.48
2022-08-21T22:57:41.361Z,98194.75
2022-08-21T23:07:50.149Z,98185.98
2022-08-21T23:18:00.125Z,98182.77
2022-08-21T23:28:11.823Z,98181.11
2022-08-21T23:38:23.983Z,98181.55
2022-08-21T23:48:34.512Z,98179.52
2022-08-21T23:58:42.620Z,98180.13
